Dera Bugti Weather



Dera Bugti's Current Weather

Temprature 28.35o clear sky

clear sky

Rain: 0 %

Min Temprature28.35o
Max Temprature28.35o
Humidity41
Wind Speed1.38 m/h
Sun Rise05:56:18
Sun Set18:56:28
Current Time: 23-Aug-2019 05:26:33
Lat/Lon: 29.03, 69.15




Dera Bugti's Geo Location



Dera Bugti's Weather Forecast

Time Overall Temp Min Temp Max Temp Humidity Wind Speed Rain
23-Aug-2019 (Fri)
08:00:00 clear sky 28.920 28.917 28.920 46 1.69 m/h 0 %
11:00:00 clear sky 33.650 33.650 33.650 32 3.38 m/h 0 %
14:00:00 clear sky 36.930 36.930 36.931 22 3.17 m/h 0 %
17:00:00 clear sky 38.110 38.110 38.111 17 3.12 m/h 0 %
20:00:00 clear sky 36.050 36.050 36.050 19 3.09 m/h 0 %
23:00:00 clear sky 32.942 32.942 32.942 26 6.37 m/h 0 %
24-Aug-2019 (Sat)
02:00:00 clear sky 30.231 30.231 30.231 41 2.57 m/h 0 %
05:00:00 clear sky 28.255 28.255 28.255 54 0.72 m/h 0 %
08:00:00 clear sky 30.027 30.027 30.027 43 2.09 m/h 0 %
11:00:00 clear sky 33.969 33.969 33.969 30 4.94 m/h 0 %
14:00:00 clear sky 37.169 37.169 37.169 21 3.55 m/h 0 %
17:00:00 clear sky 38.423 38.423 38.423 16 3.07 m/h 0 %
20:00:00 clear sky 36.050 36.050 36.050 19 5.12 m/h 0 %
23:00:00 clear sky 32.669 32.669 32.669 27 3.69 m/h 0 %
25-Aug-2019 (Sun)
02:00:00 clear sky 30.131 30.131 30.131 32 2.41 m/h 0 %
05:00:00 clear sky 27.757 27.757 27.757 60 1.01 m/h 0 %
08:00:00 clear sky 29.214 29.214 29.214 49 1.24 m/h 0 %
11:00:00 clear sky 33.316 33.316 33.316 33 3.5 m/h 0 %
14:00:00 clear sky 36.650 36.650 36.650 23 3.47 m/h 0 %
17:00:00 clear sky 37.750 37.750 37.750 19 3.43 m/h 0 %
20:00:00 clear sky 35.781 35.781 35.781 21 3.22 m/h 0 %
23:00:00 clear sky 32.711 32.711 32.711 30 3.35 m/h 0 %
26-Aug-2019 (Mon)
02:00:00 clear sky 30.265 30.265 30.265 38 2.38 m/h 0 %
05:00:00 clear sky 28.150 28.150 28.150 57 1.01 m/h 0 %
08:00:00 clear sky 30.367 30.367 30.367 45 3.01 m/h 0 %
11:00:00 few clouds 35.372 35.372 35.372 29 4.39 m/h 0 %
14:00:00 overcast clouds 38.284 38.284 38.284 21 3.95 m/h 0 %
17:00:00 broken clouds 39.220 39.220 39.220 17 5.02 m/h 0 %
20:00:00 clear sky 36.172 36.172 36.172 22 1.78 m/h 0 %
23:00:00 few clouds 34.214 34.214 34.214 25 1.38 m/h 0 %
27-Aug-2019 (Tue)
02:00:00 overcast clouds 32.416 32.416 32.416 29 3.44 m/h 0 %
05:00:00 overcast clouds 31.050 31.050 31.050 34 1.94 m/h 0 %
08:00:00 overcast clouds 34.235 34.235 34.235 26 0.77 m/h 0 %
11:00:00 overcast clouds 39.436 39.436 39.436 17 4.2 m/h 0 %
14:00:00 overcast clouds 41.336 41.336 41.336 14 4.38 m/h 0 %
17:00:00 overcast clouds 40.365 40.365 40.365 15 7.27 m/h 0 %
20:00:00 overcast clouds 35.750 35.750 35.750 26 6.01 m/h 0 %
23:00:00 broken clouds 33.350 33.350 33.350 32 2.1 m/h 0 %
28-Aug-2019 (Wed)
02:00:00 broken clouds 32.157 32.157 32.157 35 3.42 m/h 0 %
05:00:00 scattered clouds 30.672 30.672 30.672 40 1.07 m/h 0 %

Famous Cities (61)